Time;durP1;ratioP1;P1;durP2;ratioP2;P2;SDS_P1;SDS_P2;PMS_P1;PMS_P2;Temp;Humidity;BMP_temperature;BMP_pressure;BME280_temperature;BME280_humidity;BME280_pressure;Samples;Min_cycle;Max_cycle;Signal;HPM_P1;HPM_P2
2023/09/30 00:01:25;;;;;;;22.52;11.73;;;;;;;14.63;70.72;100913.91;1753051;82;21066;-76
2023/09/30 00:03:54;;;;;;;17.67;10.78;;;;;;;14.62;70.72;100909.46;1779591;79;21020;-75
2023/09/30 00:06:24;;;;;;;20.82;11.05;;;;;;;14.60;70.75;100917.09;1753106;82;21055;-76
2023/09/30 00:08:53;;;;;;;18.77;11.12;;;;;;;14.59;70.80;100912.64;1805877;79;21576;-75
2023/09/30 00:11:23;;;;;;;19.12;11.78;;;;;;;14.57;70.99;100914.77;1822700;79;21027;-75
2023/09/30 00:13:51;;;;;;;18.27;11.03;;;;;;;14.55;71.06;100911.37;1753077;81;21027;-75
2023/09/30 00:16:20;;;;;;;19.32;11.63;;;;;;;14.53;71.07;100910.73;1815483;78;21098;-76
2023/09/30 00:18:49;;;;;;;19.92;11.60;;;;;;;14.50;71.11;100912.00;1759671;81;20995;-75
2023/09/30 00:21:17;;;;;;;21.55;11.68;;;;;;;14.47;71.15;100909.67;1821474;79;21042;-76
2023/09/30 00:23:46;;;;;;;20.90;12.05;;;;;;;14.46;71.24;100903.83;1826867;78;21006;-75
2023/09/30 00:26:15;;;;;;;17.25;11.15;;;;;;;14.45;71.31;100899.91;1826880;78;21077;-75
2023/09/30 00:28:45;;;;;;;19.27;11.60;;;;;;;14.42;71.38;100904.44;1826684;78;21024;-76
2023/09/30 00:31:14;;;;;;;17.67;11.38;;;;;;;14.38;71.51;100897.11;1790871;80;21011;-76
2023/09/30 00:33:43;;;;;;;20.12;11.80;;;;;;;14.35;71.64;100893.93;1759664;81;21038;-75
2023/09/30 00:36:13;;;;;;;21.55;11.70;;;;;;;14.34;71.83;100902.73;1821316;79;21039;-76
2023/09/30 00:38:42;;;;;;;18.65;11.88;;;;;;;14.33;71.83;100894.67;1821431;78;21048;-75
2023/09/30 00:41:11;;;;;;;20.43;11.00;;;;;;;14.32;71.83;100894.34;1826845;78;21049;-76
2023/09/30 00:43:41;;;;;;;25.05;11.35;;;;;;;14.31;71.86;100897.64;1759620;81;21517;-76
2023/09/30 00:46:32;;;;;;;18.40;11.75;;;;;;;14.29;71.94;100894.20;1826889;78;21054;-76
2023/09/30 00:49:02;;;;;;;19.75;11.95;;;;;;;14.28;72.12;100894.73;1759604;81;21039;-76
2023/09/30 00:51:33;;;;;;;19.00;11.65;;;;;;;14.29;72.25;100892.83;1821403;79;21082;-75
2023/09/30 00:54:03;;;;;;;20.85;11.30;;;;;;;14.28;72.34;100891.98;1821555;79;21007;-77
2023/09/30 00:56:32;;;;;;;20.88;11.55;;;;;;;14.27;72.31;100888.05;1793231;78;21077;-76
2023/09/30 00:59:01;;;;;;;20.02;11.68;;;;;;;14.23;72.28;100890.38;1793205;78;21034;-76
2023/09/30 01:01:30;;;;;;;21.75;12.30;;;;;;;14.23;72.36;100891.76;1826786;78;21486;-75
2023/09/30 01:03:59;;;;;;;19.55;11.40;;;;;;;14.22;72.40;100889.22;1826735;78;20975;-76
2023/09/30 01:06:29;;;;;;;19.42;11.70;;;;;;;14.21;72.53;100890.27;1790599;80;21066;-76
2023/09/30 01:08:57;;;;;;;19.30;11.97;;;;;;;14.18;72.60;100883.27;1821313;79;20995;-75
2023/09/30 01:11:26;;;;;;;19.70;11.88;;;;;;;14.18;72.65;100887.41;1826710;78;21038;-76
2023/09/30 01:13:55;;;;;;;19.40;11.48;;;;;;;14.17;72.67;100883.48;1759729;81;21505;-76
2023/09/30 01:16:24;;;;;;;19.75;10.98;;;;;;;14.16;72.76;100885.92;1813075;79;21040;-76
2023/09/30 01:18:53;;;;;;;17.87;11.90;;;;;;;14.15;72.82;100886.45;1822945;79;20999;-74
2023/09/30 01:21:22;;;;;;;21.20;11.48;;;;;;;14.15;72.79;100876.80;1753453;82;21130;-75
2023/09/30 01:23:51;;;;;;;20.75;11.70;;;;;;;14.14;72.83;100883.38;1805966;79;21027;-76
2023/09/30 01:26:20;;;;;;;18.60;10.98;;;;;;;14.12;72.93;100881.88;1823014;79;21051;-76
2023/09/30 01:28:49;;;;;;;19.90;10.90;;;;;;;14.13;72.99;100887.72;1753422;82;21070;-76
2023/09/30 01:31:18;;;;;;;19.82;11.05;;;;;;;14.12;72.95;100875.84;1784110;80;21031;-75
2023/09/30 01:33:46;;;;;;;21.90;11.38;;;;;;;14.11;72.96;100877.43;1806050;79;21015;-75
2023/09/30 01:36:17;;;;;;;19.65;11.73;;;;;;;14.10;73.05;100872.98;1795774;79;21035;-75
2023/09/30 01:38:46;;;;;;;18.52;11.12;;;;;;;14.06;73.08;100880.81;1753295;82;21043;-75
2023/09/30 01:41:16;;;;;;;20.70;12.33;;;;;;;14.03;73.32;100872.11;1805947;79;21040;-75
2023/09/30 01:43:45;;;;;;;20.95;12.45;;;;;;;14.03;73.33;100882.61;1822736;79;21508;-76
2023/09/30 01:46:13;;;;;;;24.55;11.65;;;;;;;14.02;73.35;100879.53;1753120;82;21459;-76
2023/09/30 01:48:43;;;;;;;19.92;11.03;;;;;;;14.05;73.38;100883.78;1784094;80;21086;-76
2023/09/30 01:51:12;;;;;;;18.80;11.73;;;;;;;14.04;73.40;100879.33;1806149;79;21036;-76
2023/09/30 01:53:42;;;;;;;22.98;12.28;;;;;;;14.00;73.36;100879.42;1822913;79;21481;-76
2023/09/30 01:56:11;;;;;;;23.42;12.35;;;;;;;13.97;73.40;100880.69;1753269;82;21071;-76
2023/09/30 01:58:40;;;;;;;21.48;12.20;;;;;;;13.93;73.45;100878.03;1753251;82;21483;-75
2023/09/30 02:01:09;;;;;;;19.12;11.78;;;;;;;13.91;73.51;100880.14;1805926;79;21472;-75
2023/09/30 02:03:38;;;;;;;21.73;11.63;;;;;;;13.90;73.68;100878.44;1822837;79;21030;-76
2023/09/30 02:06:08;;;;;;;19.82;11.55;;;;;;;13.89;73.77;100877.59;1753216;82;21012;-76
2023/09/30 02:08:37;;;;;;;22.87;12.43;;;;;;;13.88;73.85;100873.67;1805853;79;21028;-76
2023/09/30 02:11:06;;;;;;;22.32;12.15;;;;;;;13.86;73.86;100877.16;1753742;82;21522;-75
2023/09/30 02:13:35;;;;;;;17.80;11.22;;;;;;;13.85;73.91;100874.94;1784227;80;21473;-78
2023/09/30 02:16:04;;;;;;;20.52;11.50;;;;;;;13.84;73.94;100867.73;1810214;78;21110;-76
2023/09/30 02:18:33;;;;;;;19.07;11.25;;;;;;;13.80;74.05;100870.58;1759685;81;21081;-76
2023/09/30 02:21:04;;;;;;;18.57;12.15;;;;;;;13.82;74.13;100869.84;1821417;79;21035;-74
2023/09/30 02:23:33;;;;;;;22.35;11.93;;;;;;;13.81;74.19;100865.39;1821355;79;21035;-76
2023/09/30 02:26:03;;;;;;;20.10;11.12;;;;;;;13.84;74.15;100864.13;1759526;81;21031;-77
2023/09/30 02:28:34;;;;;;;25.80;11.50;;;;;;;13.83;74.10;100867.94;1821265;79;21459;-76
2023/09/30 02:31:03;;;;;;;18.85;11.78;;;;;;;13.82;74.10;100864.86;1821524;79;21003;-76
2023/09/30 02:33:32;;;;;;;21.17;11.22;;;;;;;13.80;74.02;100862.31;1821450;79;21050;-76
2023/09/30 02:36:05;;;;;;;19.15;11.25;;;;;;;13.79;74.07;100866.12;1759584;81;20991;-75
2023/09/30 02:38:33;;;;;;;19.60;11.93;;;;;;;13.76;74.10;100866.54;1826802;78;21074;-76
2023/09/30 02:41:03;;;;;;;17.42;11.28;;;;;;;13.75;74.27;100857.95;1759716;81;21458;-76
2023/09/30 02:43:32;;;;;;;22.20;11.50;;;;;;;13.72;74.36;100858.90;1826909;78;21022;-76
2023/09/30 02:46:02;;;;;;;20.45;11.63;;;;;;;13.70;74.48;100855.50;1790734;80;21030;-76
2023/09/30 02:48:32;;;;;;;20.77;11.50;;;;;;;13.70;74.49;100859.64;1821435;79;21481;-76
2023/09/30 02:51:01;;;;;;;22.93;11.55;;;;;;;13.67;74.50;100849.88;1821446;79;21478;-75
2023/09/30 02:53:32;;;;;;;18.30;11.25;;;;;;;13.68;74.56;100850.73;1826803;78;21435;-75
2023/09/30 02:56:01;;;;;;;17.15;11.10;;;;;;;13.71;74.60;100854.45;1826798;78;21011;-77
2023/09/30 02:58:30;;;;;;;17.40;11.00;;;;;;;13.72;74.57;100852.02;1727790;81;21098;-76
2023/09/30 03:00:59;;;;;;;22.05;11.25;;;;;;;13.71;74.54;100854.45;1826813;78;21046;-75
2023/09/30 03:03:30;;;;;;;20.60;11.57;;;;;;;13.68;74.61;100846.07;1793554;78;21015;-75
2023/09/30 03:06:00;;;;;;;21.55;11.93;;;;;;;13.68;74.65;100852.11;1826756;78;20983;-76
2023/09/30 03:08:29;;;;;;;17.40;10.65;;;;;;;13.66;74.75;100855.59;1759563;81;21074;-76
2023/09/30 03:10:58;;;;;;;19.98;11.03;;;;;;;13.63;74.75;100854.92;1790708;80;21027;-75
2023/09/30 03:13:28;;;;;;;18.23;11.10;;;;;;;13.60;74.74;100852.58;1759515;81;21467;-77
2023/09/30 03:15:57;;;;;;;17.90;11.57;;;;;;;13.60;74.76;100853.96;1792657;78;21031;-74
2023/09/30 03:18:28;;;;;;;19.15;11.25;;;;;;;13.59;74.74;100848.66;1741281;81;21100;-76
2023/09/30 03:21:02;;;;;;;19.12;11.57;;;;;;;13.54;74.80;100847.91;1765562;81;21050;-76
2023/09/30 03:23:32;;;;;;;20.80;12.13;;;;;;;13.50;74.95;100843.86;1736107;81;21073;-77
2023/09/30 03:26:01;;;;;;;20.17;12.60;;;;;;;13.48;75.08;100847.88;1765336;81;21061;-76
2023/09/30 03:28:31;;;;;;;22.17;12.00;;;;;;;13.49;75.19;100844.06;1765232;81;21062;-76
2023/09/30 03:31:00;;;;;;;20.12;11.73;;;;;;;13.50;75.26;100842.48;1765211;81;21556;-75
2023/09/30 03:33:29;;;;;;;24.63;12.63;;;;;;;13.50;75.25;100842.48;1760895;81;21018;-76
2023/09/30 03:35:58;;;;;;;20.60;11.83;;;;;;;13.48;75.19;100840.47;1800350;80;21494;-75
2023/09/30 03:38:27;;;;;;;23.25;12.03;;;;;;;13.47;75.21;100840.67;1792342;80;21102;-75
2023/09/30 03:40:57;;;;;;;21.42;12.33;;;;;;;13.44;75.18;100830.92;1800315;80;21014;-75
2023/09/30 03:43:26;;;;;;;18.95;11.40;;;;;;;13.42;75.21;100836.31;1792167;80;21062;-75
2023/09/30 03:45:57;;;;;;;21.37;11.63;;;;;;;13.40;75.24;100835.14;1792122;80;21512;-75
2023/09/30 03:48:26;;;;;;;19.98;11.83;;;;;;;13.38;75.30;100837.78;1800340;80;21034;-77
2023/09/30 03:50:55;;;;;;;19.55;11.63;;;;;;;13.38;75.43;100837.25;1792036;80;21062;-76
2023/09/30 03:53:26;;;;;;;22.85;12.40;;;;;;;13.41;75.51;100835.99;1800244;80;21090;-76
2023/09/30 03:55:55;;;;;;;22.22;11.97;;;;;;;13.41;75.49;100832.71;1792446;80;21066;-76
2023/09/30 03:58:24;;;;;;;19.62;11.00;;;;;;;13.38;75.41;100830.37;1792148;80;21033;-76
2023/09/30 04:00:54;;;;;;;19.45;11.30;;;;;;;13.37;75.33;100830.05;1800322;80;21014;-76
2023/09/30 04:03:24;;;;;;;22.62;11.83;;;;;;;13.35;75.39;100829.41;1764270;80;21478;-76
2023/09/30 04:05:53;;;;;;;21.90;11.70;;;;;;;13.36;75.41;100828.34;1800224;80;21014;-76
2023/09/30 04:08:22;;;;;;;20.75;11.33;;;;;;;13.36;75.49;100836.61;1792203;80;21085;-76
2023/09/30 04:10:51;;;;;;;23.27;11.97;;;;;;;13.37;75.50;100830.05;1792131;80;21014;-76
2023/09/30 04:13:21;;;;;;;21.93;12.53;;;;;;;13.36;75.46;100831.10;1792058;80;21443;-76
2023/09/30 04:15:50;;;;;;;20.23;12.00;;;;;;;13.33;75.45;100836.49;1800209;80;21467;-76
2023/09/30 04:18:21;;;;;;;26.07;12.40;;;;;;;13.34;75.48;100844.22;1799683;79;21463;-75
2023/09/30 04:20:51;;;;;;;24.25;12.95;;;;;;;13.33;75.50;100842.52;1822885;79;21477;-75
2023/09/30 04:23:21;;;;;;;26.95;13.58;;;;;;;13.35;75.50;100839.56;1753193;82;21484;-76
2023/09/30 04:25:50;;;;;;;27.27;15.28;;;;;;;13.36;75.55;100832.48;1779677;79;21016;-76
2023/09/30 04:28:20;;;;;;;22.40;13.55;;;;;;;13.40;75.52;100836.52;1822596;79;21034;-75
2023/09/30 04:30:50;;;;;;;21.80;12.33;;;;;;;13.42;75.55;100835.78;1753106;82;21524;-76
2023/09/30 04:33:24;;;;;;;24.75;12.95;;;;;;;13.43;75.43;100840.23;1753248;82;21035;-76
2023/09/30 04:35:52;;;;;;;24.47;13.10;;;;;;;13.39;75.38;100838.95;1805835;79;21024;-75
2023/09/30 04:38:21;;;;;;;26.68;13.08;;;;;;;13.37;75.50;100845.71;1753134;82;21059;-75
2023/09/30 04:40:51;;;;;;;23.02;12.33;;;;;;;13.39;75.52;100832.06;1805796;79;21043;-75
2023/09/30 04:43:20;;;;;;;21.42;12.75;;;;;;;13.43;75.49;100830.60;1822676;79;20984;-76
2023/09/30 04:45:53;;;;;;;25.85;12.73;;;;;;;13.47;75.43;100830.51;1753078;82;21163;-76
2023/09/30 04:48:22;;;;;;;22.32;12.58;;;;;;;13.48;75.34;100834.96;1753029;82;21475;-75
2023/09/30 04:50:55;;;;;;;27.45;13.90;;;;;;;13.47;75.36;100837.39;1778982;79;21412;-76
2023/09/30 04:53:24;;;;;;;26.00;13.08;;;;;;;13.48;75.39;100836.34;1822676;79;21007;-75
2023/09/30 04:55:53;;;;;;;27.75;13.68;;;;;;;13.47;75.45;100831.88;1753113;82;21503;-75
2023/09/30 04:58:23;;;;;;;21.62;13.05;;;;;;;13.49;75.45;100834.44;1805889;79;21015;-76
2023/09/30 05:00:54;;;;;;;25.97;14.58;;;;;;;13.51;75.55;100833.17;1822793;79;20975;-75
2023/09/30 05:03:24;;;;;;;23.35;14.03;;;;;;;13.57;75.42;100833.72;1726378;82;21039;-75
2023/09/30 05:05:58;;;;;;;24.60;13.98;;;;;;;13.62;75.26;100835.86;1805809;79;21055;-76
2023/09/30 05:08:28;;;;;;;29.00;15.40;;;;;;;13.66;75.19;100837.17;1822578;79;21018;-75
2023/09/30 05:10:58;;;;;;;28.50;13.90;;;;;;;13.73;75.12;100841.31;1753186;82;20987;-75
2023/09/30 05:13:27;;;;;;;26.12;15.13;;;;;;;13.79;75.04;100834.98;1805995;79;21004;-75
2023/09/30 05:15:56;;;;;;;26.17;15.38;;;;;;;13.85;74.97;100830.02;1822717;79;21050;-76
2023/09/30 05:18:24;;;;;;;26.80;15.85;;;;;;;13.90;74.86;100831.61;1755969;81;21486;-75
2023/09/30 05:20:54;;;;;;;30.10;15.60;;;;;;;13.96;74.66;100833.53;1826709;78;21027;-77
2023/09/30 05:23:24;;;;;;;30.05;15.65;;;;;;;14.02;74.49;100834.07;1826741;78;20983;-76
2023/09/30 05:25:53;;;;;;;31.52;16.17;;;;;;;14.08;74.33;100837.36;1826817;78;21034;-75
2023/09/30 05:28:22;;;;;;;27.67;14.83;;;;;;;14.14;74.21;100831.01;1759595;81;21026;-76
2023/09/30 05:30:53;;;;;;;29.23;15.90;;;;;;;14.21;74.03;100830.48;1821128;79;21050;-76
2023/09/30 05:33:22;;;;;;;30.77;14.83;;;;;;;14.28;73.74;100831.34;1759576;81;21011;-77
2023/09/30 05:35:52;;;;;;;33.88;16.25;;;;;;;14.35;73.53;100840.17;1826835;78;21046;-75
2023/09/30 05:38:23;;;;;;;30.10;15.90;;;;;;;14.41;73.38;100837.95;1759544;81;21074;-76
2023/09/30 05:40:54;;;;;;;31.15;16.67;;;;;;;14.45;73.30;100837.88;1826789;78;21043;-75
2023/09/30 05:43:24;;;;;;;26.12;15.23;;;;;;;14.52;73.21;100835.95;1759589;81;21055;-77
2023/09/30 05:45:54;;;;;;;35.55;16.67;;;;;;;14.57;73.05;100832.03;1821165;79;21058;-76
2023/09/30 05:48:26;;;;;;;28.90;16.90;;;;;;;14.65;72.89;100830.43;1826486;78;21050;-76
2023/09/30 05:50:56;;;;;;;28.52;15.08;;;;;;;14.71;72.75;100828.20;1826613;78;21038;-76
2023/09/30 05:53:25;;;;;;;29.42;16.35;;;;;;;14.77;72.56;100827.34;1759463;81;21002;-76
2023/09/30 05:55:54;;;;;;;33.65;16.70;;;;;;;14.84;72.35;100827.32;1821212;79;21011;-76
2023/09/30 05:58:23;;;;;;;32.58;16.85;;;;;;;14.93;72.01;100829.32;1759600;81;21058;-76
2023/09/30 06:00:53;;;;;;;33.88;16.57;;;;;;;15.01;71.75;100829.12;1826839;78;21050;-75
2023/09/30 06:03:22;;;;;;;31.45;16.57;;;;;;;15.08;71.54;100829.95;1826842;78;21027;-76
2023/09/30 06:05:51;;;;;;;31.73;16.25;;;;;;;15.15;71.30;100829.40;1826819;78;21039;-76
2023/09/30 06:08:20;;;;;;;29.60;15.70;;;;;;;15.21;71.02;100824.39;1759459;81;21031;-76
2023/09/30 06:10:50;;;;;;;30.40;16.00;;;;;;;15.32;70.70;100824.23;1821433;79;21027;-75
2023/09/30 06:13:21;;;;;;;28.00;15.83;;;;;;;15.40;70.42;100827.59;1759761;81;21133;-77
2023/09/30 06:15:50;;;;;;;31.30;15.95;;;;;;;15.48;70.16;100820.45;1821341;79;21439;-75
2023/09/30 06:18:19;;;;;;;28.32;15.25;;;;;;;15.57;69.95;100822.95;1826640;78;21485;-75
2023/09/30 06:20:49;;;;;;;35.48;16.85;;;;;;;15.65;69.68;100824.14;1759815;81;21011;-77
2023/09/30 06:23:18;;;;;;;33.73;16.52;;;;;;;15.73;69.39;100823.89;1826921;78;21050;-75
2023/09/30 06:25:47;;;;;;;29.75;15.38;;;;;;;15.80;69.25;100824.16;1759974;81;21027;-74
2023/09/30 06:28:17;;;;;;;32.90;15.43;;;;;;;15.91;68.88;100830.90;1826847;78;20983;-76
2023/09/30 06:30:46;;;;;;;26.42;15.95;;;;;;;15.98;68.42;100827.55;1826923;78;21062;-75
2023/09/30 06:33:17;;;;;;;27.48;14.38;;;;;;;16.06;68.07;100825.06;1826663;78;21755;-76
2023/09/30 06:35:50;;;;;;;28.90;14.63;;;;;;;16.13;67.72;100824.47;1759849;81;21509;-75
2023/09/30 06:38:20;;;;;;;30.35;14.65;;;;;;;16.20;67.42;100825.27;1826687;78;21432;-75
2023/09/30 06:40:50;;;;;;;30.72;14.75;;;;;;;16.29;67.25;100830.02;1759900;81;21212;-76
2023/09/30 06:43:20;;;;;;;26.90;14.80;;;;;;;16.35;67.02;100827.73;1826799;78;21525;-76
2023/09/30 06:45:49;;;;;;;30.23;15.13;;;;;;;16.42;66.78;100825.77;1827014;78;21423;-74
2023/09/30 06:48:18;;;;;;;31.62;13.88;;;;;;;16.50;66.54;100824.09;1826811;78;21019;-75
2023/09/30 06:50:48;;;;;;;25.02;13.62;;;;;;;16.58;66.27;100822.96;1826812;78;21450;-77
2023/09/30 06:53:18;;;;;;;25.30;13.55;;;;;;;16.66;66.07;100822.70;1759606;81;21035;-76
2023/09/30 06:55:48;;;;;;;29.52;13.55;;;;;;;16.71;65.96;100820.95;1826793;78;21466;-76
2023/09/30 06:58:21;;;;;;;26.23;13.48;;;;;;;16.79;65.81;100819.81;1759464;81;21075;-76
2023/09/30 07:00:51;;;;;;;22.25;11.85;;;;;;;16.86;65.66;100816.97;1826894;78;21011;-79
2023/09/30 07:03:20;;;;;;;20.92;11.10;;;;;;;16.94;65.44;100822.24;1790795;80;21047;-76
2023/09/30 07:05:52;;;;;;;29.72;12.60;;;;;;;17.00;65.22;100816.63;1767815;78;20976;-76
2023/09/30 07:08:22;;;;;;;23.20;11.10;;;;;;;17.08;64.96;100816.33;1759610;81;21078;-77
2023/09/30 07:10:52;;;;;;;21.62;10.45;;;;;;;17.18;64.91;100818.56;1826816;78;21395;-75
2023/09/30 07:13:22;;;;;;;18.73;10.25;;;;;;;17.26;64.11;100818.25;1826723;78;21066;-76
2023/09/30 07:15:51;;;;;;;20.20;10.30;;;;;;;17.47;62.75;100816.08;1826907;78;20979;-76
2023/09/30 07:18:21;;;;;;;19.35;9.23;;;;;;;17.68;61.70;100814.25;1759373;81;21094;-75
2023/09/30 07:20:51;;;;;;;15.55;8.35;;;;;;;17.82;61.17;100810.21;1823682;79;21007;-76
2023/09/30 07:23:21;;;;;;;16.95;7.33;;;;;;;17.96;60.46;100807.55;1759300;81;21094;-75
2023/09/30 07:25:51;;;;;;;16.17;7.33;;;;;;;18.06;59.91;100808.36;1823778;79;20991;-75
2023/09/30 07:28:20;;;;;;;15.90;6.50;;;;;;;18.17;59.31;100809.47;1759250;81;21439;-76
2023/09/30 07:30:50;;;;;;;14.23;6.67;;;;;;;18.30;57.68;100815.68;1823642;79;21003;-75
2023/09/30 07:33:19;;;;;;;17.15;6.70;;;;;;;18.49;56.72;100808.65;1759258;81;21087;-76
2023/09/30 07:35:49;;;;;;;14.90;8.60;;;;;;;18.66;56.02;100806.87;1823494;79;21100;-73
2023/09/30 07:38:19;;;;;;;12.18;6.78;;;;;;;18.83;55.44;100807.84;1759349;81;21027;-76
2023/09/30 07:40:48;;;;;;;11.73;6.67;;;;;;;18.94;54.46;100807.02;1823628;79;21003;-76
2023/09/30 07:43:20;;;;;;;16.40;6.50;;;;;;;19.11;53.53;100805.72;1759319;81;21074;-74
2023/09/30 07:45:49;;;;;;;10.32;6.85;;;;;;;19.27;53.08;100806.36;1823699;79;21490;-75
2023/09/30 07:48:18;;;;;;;13.60;6.80;;;;;;;19.49;52.81;100798.74;1760579;81;21486;-75
2023/09/30 07:50:48;;;;;;;14.40;6.62;;;;;;;19.90;52.26;100806.85;1786867;79;21020;-76
2023/09/30 07:53:16;;;;;;;15.15;7.10;;;;;;;20.43;51.18;100804.23;1780220;80;21074;-75
2023/09/30 07:55:45;;;;;;;15.70;6.90;;;;;;;21.11;49.46;100794.71;1754651;82;21076;-70
2023/09/30 07:58:14;;;;;;;11.75;6.28;;;;;;;21.71;48.54;100785.48;1754610;82;21963;-68
2023/09/30 08:00:45;;;;;;;9.60;5.20;;;;;;;22.27;46.32;100783.30;1763376;81;21030;-68
2023/09/30 08:03:16;;;;;;;10.60;5.78;;;;;;;22.91;44.41;100786.63;1820409;79;21015;-70
2023/09/30 08:05:46;;;;;;;13.25;5.47;;;;;;;23.51;42.74;100788.91;1734445;81;21064;-69
2023/09/30 08:08:16;;;;;;;11.73;5.22;;;;;;;24.09;41.39;100786.88;1787798;79;21088;-69
2023/09/30 08:10:46;;;;;;;12.73;5.97;;;;;;;24.60;40.13;100790.55;1755459;82;21061;-69
2023/09/30 08:13:17;;;;;;;10.95;5.70;;;;;;;25.05;38.66;100783.81;1782839;80;21085;-69
2023/09/30 08:15:46;;;;;;;11.35;5.45;;;;;;;25.38;36.13;100780.92;1782770;80;21045;-70
2023/09/30 08:18:15;;;;;;;10.58;5.90;;;;;;;25.56;36.82;100785.89;1782874;79;21076;-68
2023/09/30 08:20:45;;;;;;;9.35;6.00;;;;;;;25.79;36.35;100780.17;1787247;80;21025;-68
2023/09/30 08:23:15;;;;;;;12.23;7.17;;;;;;;26.08;35.74;100776.09;1787416;80;21068;-69
2023/09/30 08:25:44;;;;;;;13.80;5.95;;;;;;;26.61;34.18;100773.43;1808564;79;21472;-69
2023/09/30 08:28:13;;;;;;;7.45;5.12;;;;;;;26.61;34.18;100773.43;1808903;79;21042;-68
2023/09/30 08:30:43;;;;;;;8.43;5.30;;;;;;;26.78;33.29;100773.85;1808703;79;21086;-69
2023/09/30 08:33:12;;;;;;;8.70;4.95;;;;;;;26.94;32.17;100775.94;1808686;79;20994;-69
2023/09/30 08:35:42;;;;;;;10.23;4.95;;;;;;;27.06;32.08;100777.80;1808790;79;20999;-71
2023/09/30 08:38:12;;;;;;;10.58;5.03;;;;;;;27.08;31.71;100774.96;1808799;79;21034;-70
2023/09/30 08:40:41;;;;;;;12.75;5.45;;;;;;;27.01;31.26;100775.88;1782226;79;21494;-69
2023/09/30 08:43:11;;;;;;;9.63;5.08;;;;;;;26.88;31.12;100772.34;1808773;79;21003;-68
2023/09/30 08:45:40;;;;;;;8.95;5.60;;;;;;;26.75;31.55;100777.26;1808836;79;21066;-67
2023/09/30 08:48:11;;;;;;;9.95;5.37;;;;;;;26.58;31.85;100769.23;1808738;79;21066;-69
2023/09/30 08:50:41;;;;;;;11.05;5.75;;;;;;;26.20;32.29;100759.14;1808874;79;21113;-68
2023/09/30 08:53:10;;;;;;;9.78;5.42;;;;;;;26.20;32.29;100759.14;1809161;79;21516;-69
2023/09/30 08:55:40;;;;;;;10.30;5.97;;;;;;;26.09;32.72;100760.34;1809128;79;21422;-70
2023/09/30 08:58:09;;;;;;;14.63;6.67;;;;;;;25.99;32.86;100760.39;1812237;79;21489;-69
2023/09/30 09:00:39;;;;;;;10.68;7.00;;;;;;;25.91;32.96;100761.01;1819526;78;20983;-69
2023/09/30 09:03:09;;;;;;;11.95;6.45;;;;;;;25.82;33.03;100759.38;1819417;78;21055;-69
2023/09/30 09:05:39;;;;;;;10.75;6.70;;;;;;;25.72;33.31;100757.20;1819518;79;21011;-68
2023/09/30 09:08:10;;;;;;;14.73;6.00;;;;;;;25.60;33.39;100759.77;1819476;78;21087;-68
2023/09/30 09:10:57;;;;;;;12.60;5.67;;;;;;;25.50;33.27;100756.17;1819217;78;21094;-68
2023/09/30 09:13:27;;;;;;;9.53;5.72;;;;;;;25.40;33.36;100759.03;1785645;79;21459;-68
2023/09/30 09:16:09;;;;;;;8.68;5.12;;;;;;;25.26;33.39;100756.81;1819225;78;21047;-70
2023/09/30 09:18:39;;;;;;;12.93;5.62;;;;;;;25.18;33.38;100756.00;1819584;78;21203;-71
2023/09/30 09:21:17;;;;;;;9.85;5.78;;;;;;;25.07;33.83;100748.75;1861908;77;21046;-69
2023/09/30 09:23:48;;;;;;;12.73;5.83;;;;;;;25.02;33.99;100750.73;1861859;77;21046;-66
2023/09/30 09:26:31;;;;;;;9.48;5.50;;;;;;;24.92;34.34;100745.96;1861803;77;21034;-68
2023/09/30 09:29:04;;;;;;;11.28;5.90;;;;;;;24.86;34.44;100735.89;1824083;78;21058;-70
2023/09/30 09:31:35;;;;;;;10.50;6.33;;;;;;;24.81;34.39;100739.55;1862102;77;21006;-70
2023/09/30 09:34:14;;;;;;;8.55;5.92;;;;;;;24.78;34.47;100744.31;1861890;77;21018;-69
2023/09/30 09:36:44;;;;;;;10.95;6.50;;;;;;;24.75;34.28;100742.64;1861865;77;21439;-70
2023/09/30 09:39:16;;;;;;;9.28;5.35;;;;;;;24.69;34.83;100741.78;1824043;79;21081;-69
2023/09/30 09:41:52;;;;;;;12.58;5.78;;;;;;;24.68;34.21;100742.91;1824203;79;21027;-69
2023/09/30 09:44:25;;;;;;;9.50;5.80;;;;;;;24.63;34.12;100742.91;1862041;77;21030;-70
2023/09/30 09:46:54;;;;;;;9.20;5.72;;;;;;;24.57;34.23;100741.24;1862082;77;21007;-71
2023/09/30 09:49:23;;;;;;;10.93;5.80;;;;;;;24.54;34.06;100726.40;1862158;77;21325;-70
2023/09/30 09:52:02;;;;;;;9.90;5.87;;;;;;;24.49;34.27;100734.25;1862065;77;21057;-69
2023/09/30 09:54:32;;;;;;;10.68;5.37;;;;;;;24.47;34.44;100728.66;1823953;78;21506;-69
2023/09/30 09:57:01;;;;;;;9.60;5.42;;;;;;;24.47;34.35;100725.85;1862159;77;20998;-70
2023/09/30 09:59:31;;;;;;;11.35;5.65;;;;;;;24.48;34.14;100723.33;1831340;77;21421;-69
2023/09/30 10:02:01;;;;;;;8.43;5.42;;;;;;;24.47;34.22;100724.45;1827696;78;21450;-69
2023/09/30 10:04:32;;;;;;;11.38;5.65;;;;;;;24.46;34.11;100711.56;1827616;78;20977;-71
2023/09/30 10:07:01;;;;;;;11.15;5.20;;;;;;;24.46;34.27;100711.56;1827566;78;21139;-69
2023/09/30 10:09:31;;;;;;;7.90;5.17;;;;;;;24.48;33.75;100707.92;1827526;78;21452;-69
2023/09/30 10:12:03;;;;;;;12.15;5.67;;;;;;;24.53;33.77;100706.51;1827389;78;21052;-71
2023/09/30 10:14:33;;;;;;;10.20;5.75;;;;;;;24.54;33.66;100707.63;1827563;78;21036;-69
2023/09/30 10:17:03;;;;;;;8.50;5.20;;;;;;;24.53;33.58;100707.34;1827721;78;21043;-68
2023/09/30 10:19:33;;;;;;;10.05;5.12;;;;;;;24.50;33.65;100698.11;1830117;78;21047;-69
2023/09/30 10:22:22;;;;;;;8.90;5.67;;;;;;;24.49;33.55;100698.39;1822468;79;21436;-69
2023/09/30 10:24:56;;;;;;;9.93;5.22;;;;;;;24.48;33.33;100698.11;1822802;78;21041;-69
2023/09/30 10:27:34;;;;;;;7.58;5.12;;;;;;;24.44;33.50;100692.80;1822818;79;21448;-70
2023/09/30 10:30:21;;;;;;;6.72;5.03;;;;;;;24.45;33.50;100688.88;1822940;78;21024;-69
2023/09/30 10:33:01;;;;;;;9.73;4.92;;;;;;;24.47;33.40;100684.66;1822083;79;21001;-70
2023/09/30 10:35:39;;;;;;;9.50;5.10;;;;;;;24.51;32.97;100684.94;1822551;79;21430;-70
2023/09/30 10:38:28;;;;;;;7.78;4.95;;;;;;;24.53;32.63;100686.89;1822509;79;21044;-70
2023/09/30 10:40:59;;;;;;;6.87;4.72;;;;;;;24.55;32.95;100689.69;1821858;79;21456;-69
2023/09/30 10:43:40;;;;;;;8.40;4.80;;;;;;;24.56;33.01;100680.73;1770146;79;21009;-69
2023/09/30 10:46:31;;;;;;;7.03;4.90;;;;;;;24.56;33.07;100676.52;1822442;79;21095;-69
2023/09/30 10:49:17;;;;;;;10.72;5.28;;;;;;;24.56;33.00;100674.56;1822585;79;21046;-69
2023/09/30 10:51:47;;;;;;;10.40;5.33;;;;;;;24.59;32.91;100674.55;1816196;79;21528;-69
2023/09/30 10:54:30;;;;;;;8.73;5.12;;;;;;;24.60;32.96;100670.63;1822573;78;21020;-69
2023/09/30 10:57:00;;;;;;;13.13;5.40;;;;;;;24.60;32.92;100668.66;1822704;79;21084;-69
2023/09/30 10:59:34;;;;;;;9.45;5.40;;;;;;;24.65;32.57;100664.45;1849007;77;21011;-68
2023/09/30 11:02:03;;;;;;;7.62;5.10;;;;;;;24.71;32.59;100663.03;1819648;79;21003;-68
2023/09/30 11:04:47;;;;;;;10.58;5.50;;;;;;;24.73;32.20;100651.00;1823294;79;21023;-69
2023/09/30 11:07:23;;;;;;;9.20;5.50;;;;;;;24.69;32.57;100650.70;1819677;79;21035;-64
2023/09/30 11:09:55;;;;;;;10.28;5.05;;;;;;;24.67;32.94;100645.95;1823256;79;21034;-72
2023/09/30 11:12:30;;;;;;;10.08;5.60;;;;;;;24.67;32.97;100641.74;1793799;79;21062;-67
2023/09/30 11:15:02;;;;;;;13.70;5.58;;;;;;;24.69;32.91;100643.70;1823409;79;21019;-68
2023/09/30 11:17:32;;;;;;;9.28;5.60;;;;;;;24.75;32.56;100648.19;1819560;79;21474;-68
2023/09/30 11:20:04;;;;;;;7.95;5.12;;;;;;;24.80;32.28;100642.56;1811050;78;21492;-68
2023/09/30 11:22:35;;;;;;;10.55;5.28;;;;;;;24.78;32.27;100636.41;1777934;77;21532;-69
2023/09/30 11:25:06;;;;;;;9.53;5.50;;;;;;;24.72;32.40;100636.71;1827217;77;21062;-68
2023/09/30 11:27:35;;;;;;;12.37;5.33;;;;;;;24.65;32.43;100635.02;1844573;77;21023;-70
2023/09/30 11:30:08;;;;;;;8.80;5.55;;;;;;;24.61;32.69;100628.88;1791778;80;21074;-68